Imperatriz, Brazil
Current Conditions -  °F | °C
As of 1:00 AM on Friday 31 Oct 2014 (Local Time) from SBIZ Reporting Station
Thunderstorm Thunderstorm  
Wind Chill: 75°   Ceiling: 5000
Heat Index: 75°   Visibility: 3mi
Dew Point: 72°   Wind: 9mph
Humidity: 89%   Direction: 30°NNE
Pressure: 29.83"   Gusts: NA
Location:  5.52°S, 47.49°W
Report Text: SBIZ 310400Z 03008KT 5000 -TSRA BR FEW030CB OVC050 24/22 Q1010
Loading
Personal Weather Stations






























Interactive Weather Map
Tropical Storm Tracking
New forecast layout! Learn more

10-Day Weather Forecast

Advertisements
Track Severe Weather on mobile